sensor_id;sensor_type;location;lat;lon;timestamp;P1;durP1;ratioP1;P2;durP2;ratioP2
12986;SDS011;58897;51.960;5.582;2024-01-11T00:00:30;12.97;;;4.67;;
12986;SDS011;58897;51.960;5.582;2024-01-11T00:02:57;11.93;;;5.67;;
12986;SDS011;58897;51.960;5.582;2024-01-11T00:05:24;15.23;;;5.67;;
12986;SDS011;58897;51.960;5.582;2024-01-11T00:07:51;14.57;;;5.13;;
12986;SDS011;58897;51.960;5.582;2024-01-11T00:10:18;12.27;;;5.37;;
12986;SDS011;58897;51.960;5.582;2024-01-11T00:12:46;19.30;;;6.33;;
12986;SDS011;58897;51.960;5.582;2024-01-11T00:15:13;20.93;;;6.30;;
12986;SDS011;58897;51.960;5.582;2024-01-11T00:17:40;23.07;;;7.23;;
12986;SDS011;58897;51.960;5.582;2024-01-11T00:20:07;22.37;;;6.87;;
12986;SDS011;58897;51.960;5.582;2024-01-11T00:22:34;19.07;;;6.67;;
12986;SDS011;58897;51.960;5.582;2024-01-11T00:25:00;17.00;;;6.60;;
12986;SDS011;58897;51.960;5.582;2024-01-11T00:27:27;14.33;;;5.47;;
12986;SDS011;58897;51.960;5.582;2024-01-11T00:29:54;18.23;;;6.77;;
12986;SDS011;58897;51.960;5.582;2024-01-11T00:32:20;18.50;;;5.87;;
12986;SDS011;58897;51.960;5.582;2024-01-11T00:34:47;18.27;;;6.40;;
12986;SDS011;58897;51.960;5.582;2024-01-11T00:37:16;18.53;;;6.37;;
12986;SDS011;58897;51.960;5.582;2024-01-11T00:39:43;17.10;;;6.07;;
12986;SDS011;58897;51.960;5.582;2024-01-11T00:42:10;14.13;;;5.73;;
12986;SDS011;58897;51.960;5.582;2024-01-11T00:44:36;18.37;;;6.87;;
12986;SDS011;58897;51.960;5.582;2024-01-11T00:47:03;15.80;;;6.97;;
12986;SDS011;58897;51.960;5.582;2024-01-11T00:49:30;19.93;;;6.63;;
12986;SDS011;58897;51.960;5.582;2024-01-11T00:51:56;14.60;;;6.23;;
12986;SDS011;58897;51.960;5.582;2024-01-11T00:54:23;19.97;;;6.80;;
12986;SDS011;58897;51.960;5.582;2024-01-11T00:56:51;17.40;;;6.23;;
12986;SDS011;58897;51.960;5.582;2024-01-11T00:59:18;16.73;;;6.20;;
12986;SDS011;58897;51.960;5.582;2024-01-11T01:01:48;20.83;;;6.57;;
12986;SDS011;58897;51.960;5.582;2024-01-11T01:04:15;10.33;;;5.37;;
12986;SDS011;58897;51.960;5.582;2024-01-11T01:06:42;16.20;;;5.50;;
12986;SDS011;58897;51.960;5.582;2024-01-11T01:09:10;15.10;;;6.73;;
12986;SDS011;58897;51.960;5.582;2024-01-11T01:11:36;15.30;;;5.77;;
12986;SDS011;58897;51.960;5.582;2024-01-11T01:14:03;14.43;;;5.60;;
12986;SDS011;58897;51.960;5.582;2024-01-11T01:16:31;17.60;;;6.47;;
12986;SDS011;58897;51.960;5.582;2024-01-11T01:18:57;20.77;;;6.40;;
12986;SDS011;58897;51.960;5.582;2024-01-11T01:21:24;19.33;;;6.53;;
12986;SDS011;58897;51.960;5.582;2024-01-11T01:23:51;19.60;;;6.63;;
12986;SDS011;58897;51.960;5.582;2024-01-11T01:26:18;10.53;;;5.40;;
12986;SDS011;58897;51.960;5.582;2024-01-11T01:28:45;17.73;;;5.70;;
12986;SDS011;58897;51.960;5.582;2024-01-11T01:31:11;17.53;;;5.40;;
12986;SDS011;58897;51.960;5.582;2024-01-11T01:33:39;17.73;;;6.10;;
12986;SDS011;58897;51.960;5.582;2024-01-11T01:36:10;19.00;;;5.53;;
12986;SDS011;58897;51.960;5.582;2024-01-11T01:38:37;14.93;;;5.90;;
12986;SDS011;58897;51.960;5.582;2024-01-11T01:41:04;12.93;;;5.63;;
12986;SDS011;58897;51.960;5.582;2024-01-11T01:43:31;16.87;;;5.07;;
12986;SDS011;58897;51.960;5.582;2024-01-11T01:45:58;11.80;;;5.07;;
12986;SDS011;58897;51.960;5.582;2024-01-11T01:48:25;12.10;;;4.93;;
12986;SDS011;58897;51.960;5.582;2024-01-11T01:50:53;14.77;;;4.60;;
12986;SDS011;58897;51.960;5.582;2024-01-11T01:53:21;11.33;;;4.93;;
12986;SDS011;58897;51.960;5.582;2024-01-11T01:55:50;11.23;;;4.87;;
12986;SDS011;58897;51.960;5.582;2024-01-11T01:58:19;16.90;;;5.40;;
12986;SDS011;58897;51.960;5.582;2024-01-11T02:00:48;12.77;;;4.93;;
12986;SDS011;58897;51.960;5.582;2024-01-11T02:03:17;17.60;;;4.87;;
12986;SDS011;58897;51.960;5.582;2024-01-11T02:05:45;14.33;;;5.33;;
12986;SDS011;58897;51.960;5.582;2024-01-11T02:08:12;10.33;;;4.63;;
12986;SDS011;58897;51.960;5.582;2024-01-11T02:10:44;11.17;;;5.03;;
12986;SDS011;58897;51.960;5.582;2024-01-11T02:13:12;15.03;;;5.33;;
12986;SDS011;58897;51.960;5.582;2024-01-11T02:15:39;10.67;;;4.40;;
12986;SDS011;58897;51.960;5.582;2024-01-11T02:18:06;20.37;;;6.23;;
12986;SDS011;58897;51.960;5.582;2024-01-11T02:20:33;15.17;;;5.50;;
12986;SDS011;58897;51.960;5.582;2024-01-11T02:23:05;11.27;;;4.60;;
12986;SDS011;58897;51.960;5.582;2024-01-11T02:25:34;17.20;;;5.97;;
12986;SDS011;58897;51.960;5.582;2024-01-11T02:28:01;16.60;;;5.87;;
12986;SDS011;58897;51.960;5.582;2024-01-11T02:30:28;14.87;;;5.80;;
12986;SDS011;58897;51.960;5.582;2024-01-11T02:32:54;12.20;;;5.10;;
12986;SDS011;58897;51.960;5.582;2024-01-11T02:35:22;12.93;;;5.23;;
12986;SDS011;58897;51.960;5.582;2024-01-11T02:37:51;17.30;;;5.53;;
12986;SDS011;58897;51.960;5.582;2024-01-11T02:40:18;12.13;;;4.50;;
12986;SDS011;58897;51.960;5.582;2024-01-11T02:42:46;13.43;;;5.43;;
12986;SDS011;58897;51.960;5.582;2024-01-11T02:45:13;12.17;;;4.70;;
12986;SDS011;58897;51.960;5.582;2024-01-11T02:47:39;11.70;;;4.97;;
12986;SDS011;58897;51.960;5.582;2024-01-11T02:50:07;15.47;;;5.27;;
12986;SDS011;58897;51.960;5.582;2024-01-11T02:52:34;10.77;;;4.80;;
12986;SDS011;58897;51.960;5.582;2024-01-11T02:55:01;13.57;;;5.53;;
12986;SDS011;58897;51.960;5.582;2024-01-11T02:57:28;16.87;;;6.10;;
12986;SDS011;58897;51.960;5.582;2024-01-11T02:59:55;16.77;;;5.87;;
12986;SDS011;58897;51.960;5.582;2024-01-11T03:02:22;12.63;;;5.07;;
12986;SDS011;58897;51.960;5.582;2024-01-11T03:04:49;17.00;;;5.77;;
12986;SDS011;58897;51.960;5.582;2024-01-11T03:07:15;12.50;;;5.00;;
12986;SDS011;58897;51.960;5.582;2024-01-11T03:09:42;12.70;;;5.50;;
12986;SDS011;58897;51.960;5.582;2024-01-11T03:12:09;14.30;;;5.27;;
12986;SDS011;58897;51.960;5.582;2024-01-11T03:14:36;11.63;;;4.83;;
12986;SDS011;58897;51.960;5.582;2024-01-11T03:17:03;18.80;;;5.27;;
12986;SDS011;58897;51.960;5.582;2024-01-11T03:19:31;19.10;;;5.90;;
12986;SDS011;58897;51.960;5.582;2024-01-11T03:21:57;17.83;;;6.00;;
12986;SDS011;58897;51.960;5.582;2024-01-11T03:24:24;12.10;;;4.73;;
12986;SDS011;58897;51.960;5.582;2024-01-11T03:26:51;16.97;;;6.17;;
12986;SDS011;58897;51.960;5.582;2024-01-11T03:29:17;16.90;;;5.50;;
12986;SDS011;58897;51.960;5.582;2024-01-11T03:31:44;16.37;;;6.13;;
12986;SDS011;58897;51.960;5.582;2024-01-11T03:34:11;16.93;;;5.00;;
12986;SDS011;58897;51.960;5.582;2024-01-11T03:36:39;11.67;;;4.70;;
12986;SDS011;58897;51.960;5.582;2024-01-11T03:39:06;14.90;;;5.13;;
12986;SDS011;58897;51.960;5.582;2024-01-11T03:41:33;16.30;;;5.90;;
12986;SDS011;58897;51.960;5.582;2024-01-11T03:44:00;15.63;;;5.60;;
12986;SDS011;58897;51.960;5.582;2024-01-11T03:46:27;15.37;;;5.23;;
12986;SDS011;58897;51.960;5.582;2024-01-11T03:48:54;13.23;;;5.30;;
12986;SDS011;58897;51.960;5.582;2024-01-11T03:51:22;17.53;;;5.47;;
12986;SDS011;58897;51.960;5.582;2024-01-11T03:53:49;16.47;;;6.27;;
12986;SDS011;58897;51.960;5.582;2024-01-11T03:56:16;12.00;;;4.83;;
12986;SDS011;58897;51.960;5.582;2024-01-11T03:58:43;16.90;;;4.90;;
12986;SDS011;58897;51.960;5.582;2024-01-11T04:01:11;14.33;;;5.37;;
12986;SDS011;58897;51.960;5.582;2024-01-11T04:03:38;16.03;;;6.07;;
12986;SDS011;58897;51.960;5.582;2024-01-11T04:06:05;11.27;;;4.87;;
12986;SDS011;58897;51.960;5.582;2024-01-11T04:08:33;12.03;;;4.83;;
12986;SDS011;58897;51.960;5.582;2024-01-11T04:11:03;12.97;;;5.50;;
12986;SDS011;58897;51.960;5.582;2024-01-11T04:13:33;12.93;;;5.30;;
12986;SDS011;58897;51.960;5.582;2024-01-11T04:16:03;14.77;;;5.33;;
12986;SDS011;58897;51.960;5.582;2024-01-11T04:18:31;12.93;;;5.17;;
12986;SDS011;58897;51.960;5.582;2024-01-11T04:20:58;16.50;;;5.77;;
12986;SDS011;58897;51.960;5.582;2024-01-11T04:23:25;11.90;;;4.87;;
12986;SDS011;58897;51.960;5.582;2024-01-11T04:25:52;14.50;;;5.00;;
12986;SDS011;58897;51.960;5.582;2024-01-11T04:28:18;12.33;;;5.03;;
12986;SDS011;58897;51.960;5.582;2024-01-11T04:30:45;15.33;;;6.00;;
12986;SDS011;58897;51.960;5.582;2024-01-11T04:33:12;12.20;;;4.90;;
12986;SDS011;58897;51.960;5.582;2024-01-11T04:35:39;13.00;;;5.07;;
12986;SDS011;58897;51.960;5.582;2024-01-11T04:38:06;23.03;;;5.73;;
12986;SDS011;58897;51.960;5.582;2024-01-11T04:40:33;14.23;;;5.27;;
12986;SDS011;58897;51.960;5.582;2024-01-11T04:42:59;14.40;;;5.67;;
12986;SDS011;58897;51.960;5.582;2024-01-11T04:45:26;15.97;;;6.13;;
12986;SDS011;58897;51.960;5.582;2024-01-11T04:47:53;22.27;;;6.23;;
12986;SDS011;58897;51.960;5.582;2024-01-11T04:50:21;14.63;;;5.63;;
12986;SDS011;58897;51.960;5.582;2024-01-11T04:52:48;14.20;;;5.57;;
12986;SDS011;58897;51.960;5.582;2024-01-11T04:55:15;13.33;;;5.80;;
12986;SDS011;58897;51.960;5.582;2024-01-11T04:57:42;11.43;;;5.67;;
12986;SDS011;58897;51.960;5.582;2024-01-11T05:00:09;11.33;;;6.13;;
12986;SDS011;58897;51.960;5.582;2024-01-11T05:02:37;16.63;;;5.90;;
12986;SDS011;58897;51.960;5.582;2024-01-11T05:05:04;16.43;;;5.57;;
12986;SDS011;58897;51.960;5.582;2024-01-11T05:07:32;8.50;;;5.03;;
12986;SDS011;58897;51.960;5.582;2024-01-11T05:10:01;8.37;;;4.03;;
12986;SDS011;58897;51.960;5.582;2024-01-11T05:12:28;13.87;;;5.43;;
12986;SDS011;58897;51.960;5.582;2024-01-11T05:14:56;10.07;;;4.80;;
12986;SDS011;58897;51.960;5.582;2024-01-11T05:17:22;17.67;;;6.23;;
12986;SDS011;58897;51.960;5.582;2024-01-11T05:19:56;14.67;;;4.53;;
12986;SDS011;58897;51.960;5.582;2024-01-11T05:22:27;13.40;;;5.03;;
12986;SDS011;58897;51.960;5.582;2024-01-11T05:24:54;12.47;;;4.87;;
12986;SDS011;58897;51.960;5.582;2024-01-11T05:27:22;12.13;;;5.10;;
12986;SDS011;58897;51.960;5.582;2024-01-11T05:29:51;13.77;;;5.77;;
12986;SDS011;58897;51.960;5.582;2024-01-11T05:32:19;12.47;;;5.83;;
12986;SDS011;58897;51.960;5.582;2024-01-11T05:34:46;23.80;;;6.77;;
12986;SDS011;58897;51.960;5.582;2024-01-11T05:37:16;14.40;;;5.37;;
12986;SDS011;58897;51.960;5.582;2024-01-11T05:39:43;18.40;;;7.20;;
12986;SDS011;58897;51.960;5.582;2024-01-11T05:42:11;22.47;;;5.80;;
12986;SDS011;58897;51.960;5.582;2024-01-11T05:44:40;21.30;;;5.63;;
12986;SDS011;58897;51.960;5.582;2024-01-11T05:47:08;12.47;;;5.43;;
12986;SDS011;58897;51.960;5.582;2024-01-11T05:49:36;13.80;;;5.47;;
12986;SDS011;58897;51.960;5.582;2024-01-11T05:52:06;13.80;;;5.40;;
12986;SDS011;58897;51.960;5.582;2024-01-11T05:54:34;13.03;;;5.57;;
12986;SDS011;58897;51.960;5.582;2024-01-11T05:57:02;18.23;;;6.03;;
12986;SDS011;58897;51.960;5.582;2024-01-11T05:59:30;21.57;;;6.00;;
12986;SDS011;58897;51.960;5.582;2024-01-11T06:01:57;17.50;;;5.73;;
12986;SDS011;58897;51.960;5.582;2024-01-11T06:04:27;16.17;;;6.00;;
12986;SDS011;58897;51.960;5.582;2024-01-11T06:06:54;18.07;;;6.43;;
12986;SDS011;58897;51.960;5.582;2024-01-11T06:09:21;15.30;;;6.47;;
12986;SDS011;58897;51.960;5.582;2024-01-11T06:11:48;16.53;;;7.33;;
12986;SDS011;58897;51.960;5.582;2024-01-11T06:14:15;16.50;;;6.80;;
12986;SDS011;58897;51.960;5.582;2024-01-11T06:16:41;17.47;;;6.30;;
12986;SDS011;58897;51.960;5.582;2024-01-11T06:19:08;21.60;;;6.60;;
12986;SDS011;58897;51.960;5.582;2024-01-11T06:21:35;21.77;;;7.60;;
12986;SDS011;58897;51.960;5.582;2024-01-11T06:24:02;16.33;;;6.00;;
12986;SDS011;58897;51.960;5.582;2024-01-11T06:26:29;18.43;;;7.13;;
12986;SDS011;58897;51.960;5.582;2024-01-11T06:28:56;17.73;;;7.00;;
12986;SDS011;58897;51.960;5.582;2024-01-11T06:31:23;14.70;;;6.10;;
12986;SDS011;58897;51.960;5.582;2024-01-11T06:33:49;16.53;;;6.83;;
12986;SDS011;58897;51.960;5.582;2024-01-11T06:36:17;15.60;;;6.47;;
12986;SDS011;58897;51.960;5.582;2024-01-11T06:38:43;19.63;;;7.43;;
12986;SDS011;58897;51.960;5.582;2024-01-11T06:41:10;25.00;;;7.97;;
12986;SDS011;58897;51.960;5.582;2024-01-11T06:43:37;17.70;;;7.57;;
12986;SDS011;58897;51.960;5.582;2024-01-11T06:46:04;21.83;;;8.37;;
12986;SDS011;58897;51.960;5.582;2024-01-11T06:48:31;16.77;;;7.27;;
12986;SDS011;58897;51.960;5.582;2024-01-11T06:50:58;22.13;;;7.80;;
12986;SDS011;58897;51.960;5.582;2024-01-11T06:53:27;21.40;;;6.70;;
12986;SDS011;58897;51.960;5.582;2024-01-11T06:55:54;17.23;;;6.67;;
12986;SDS011;58897;51.960;5.582;2024-01-11T06:58:21;20.07;;;8.13;;
12986;SDS011;58897;51.960;5.582;2024-01-11T07:00:49;21.97;;;8.03;;
12986;SDS011;58897;51.960;5.582;2024-01-11T07:03:16;15.00;;;7.17;;
12986;SDS011;58897;51.960;5.582;2024-01-11T07:05:43;17.80;;;7.13;;
12986;SDS011;58897;51.960;5.582;2024-01-11T07:08:10;21.83;;;7.70;;
12986;SDS011;58897;51.960;5.582;2024-01-11T07:10:37;22.97;;;8.03;;
12986;SDS011;58897;51.960;5.582;2024-01-11T07:13:03;18.27;;;8.17;;
12986;SDS011;58897;51.960;5.582;2024-01-11T07:15:30;20.43;;;8.13;;
12986;SDS011;58897;51.960;5.582;2024-01-11T07:17:57;22.53;;;9.23;;
12986;SDS011;58897;51.960;5.582;2024-01-11T07:20:24;18.47;;;8.00;;
12986;SDS011;58897;51.960;5.582;2024-01-11T07:22:50;25.57;;;9.03;;
12986;SDS011;58897;51.960;5.582;2024-01-11T07:25:17;25.07;;;7.97;;
12986;SDS011;58897;51.960;5.582;2024-01-11T07:27:43;16.80;;;7.50;;
12986;SDS011;58897;51.960;5.582;2024-01-11T07:30:11;19.63;;;8.00;;
12986;SDS011;58897;51.960;5.582;2024-01-11T07:32:38;20.93;;;8.73;;
12986;SDS011;58897;51.960;5.582;2024-01-11T07:35:05;22.20;;;7.80;;
12986;SDS011;58897;51.960;5.582;2024-01-11T07:37:39;21.00;;;8.37;;
12986;SDS011;58897;51.960;5.582;2024-01-11T07:40:06;29.33;;;8.97;;
12986;SDS011;58897;51.960;5.582;2024-01-11T07:42:37;17.83;;;8.03;;
12986;SDS011;58897;51.960;5.582;2024-01-11T07:45:06;15.07;;;7.07;;
12986;SDS011;58897;51.960;5.582;2024-01-11T07:47:33;18.83;;;8.70;;
12986;SDS011;58897;51.960;5.582;2024-01-11T07:50:00;26.63;;;9.07;;
12986;SDS011;58897;51.960;5.582;2024-01-11T07:52:27;19.70;;;8.57;;
12986;SDS011;58897;51.960;5.582;2024-01-11T07:54:53;17.57;;;8.53;;
12986;SDS011;58897;51.960;5.582;2024-01-11T07:57:20;23.83;;;9.47;;
12986;SDS011;58897;51.960;5.582;2024-01-11T07:59:47;47.73;;;9.90;;
12986;SDS011;58897;51.960;5.582;2024-01-11T08:02:14;28.73;;;10.80;;
12986;SDS011;58897;51.960;5.582;2024-01-11T08:04:42;21.43;;;10.00;;
12986;SDS011;58897;51.960;5.582;2024-01-11T08:07:11;21.67;;;10.73;;
12986;SDS011;58897;51.960;5.582;2024-01-11T08:09:38;30.17;;;10.80;;
12986;SDS011;58897;51.960;5.582;2024-01-11T08:12:11;30.40;;;12.37;;
12986;SDS011;58897;51.960;5.582;2024-01-11T08:14:39;21.47;;;9.50;;
12986;SDS011;58897;51.960;5.582;2024-01-11T08:17:08;25.27;;;9.90;;
12986;SDS011;58897;51.960;5.582;2024-01-11T08:19:34;26.30;;;10.70;;
12986;SDS011;58897;51.960;5.582;2024-01-11T08:22:01;26.03;;;11.87;;
12986;SDS011;58897;51.960;5.582;2024-01-11T08:24:28;22.13;;;8.93;;
12986;SDS011;58897;51.960;5.582;2024-01-11T08:26:55;22.57;;;9.30;;
12986;SDS011;58897;51.960;5.582;2024-01-11T08:29:21;24.93;;;9.20;;
12986;SDS011;58897;51.960;5.582;2024-01-11T08:31:48;16.90;;;8.27;;
12986;SDS011;58897;51.960;5.582;2024-01-11T08:34:15;22.13;;;9.67;;
12986;SDS011;58897;51.960;5.582;2024-01-11T08:36:42;21.40;;;8.73;;
12986;SDS011;58897;51.960;5.582;2024-01-11T08:39:08;20.73;;;8.90;;
12986;SDS011;58897;51.960;5.582;2024-01-11T08:41:37;26.63;;;10.57;;
12986;SDS011;58897;51.960;5.582;2024-01-11T08:44:04;19.17;;;8.43;;
12986;SDS011;58897;51.960;5.582;2024-01-11T08:46:33;21.67;;;8.80;;
12986;SDS011;58897;51.960;5.582;2024-01-11T08:49:00;26.10;;;11.50;;
12986;SDS011;58897;51.960;5.582;2024-01-11T08:51:30;23.97;;;10.93;;
12986;SDS011;58897;51.960;5.582;2024-01-11T08:53:57;23.43;;;9.90;;
12986;SDS011;58897;51.960;5.582;2024-01-11T08:56:24;20.30;;;8.43;;
12986;SDS011;58897;51.960;5.582;2024-01-11T08:58:50;25.97;;;10.67;;
12986;SDS011;58897;51.960;5.582;2024-01-11T09:01:17;25.47;;;10.67;;
12986;SDS011;58897;51.960;5.582;2024-01-11T09:03:46;25.57;;;10.70;;
12986;SDS011;58897;51.960;5.582;2024-01-11T09:06:14;27.13;;;10.37;;
12986;SDS011;58897;51.960;5.582;2024-01-11T09:08:41;22.83;;;9.90;;
12986;SDS011;58897;51.960;5.582;2024-01-11T09:11:08;22.97;;;11.20;;
12986;SDS011;58897;51.960;5.582;2024-01-11T09:13:36;24.70;;;10.17;;
12986;SDS011;58897;51.960;5.582;2024-01-11T09:16:03;21.80;;;9.57;;
12986;SDS011;58897;51.960;5.582;2024-01-11T09:18:30;31.90;;;11.73;;
12986;SDS011;58897;51.960;5.582;2024-01-11T09:20:57;33.13;;;12.70;;
12986;SDS011;58897;51.960;5.582;2024-01-11T09:23:24;28.73;;;12.60;;
12986;SDS011;58897;51.960;5.582;2024-01-11T09:25:50;24.43;;;10.23;;
12986;SDS011;58897;51.960;5.582;2024-01-11T09:28:17;27.40;;;12.83;;
12986;SDS011;58897;51.960;5.582;2024-01-11T09:30:43;25.60;;;11.47;;
12986;SDS011;58897;51.960;5.582;2024-01-11T09:33:10;30.47;;;13.20;;
12986;SDS011;58897;51.960;5.582;2024-01-11T09:35:37;31.67;;;13.67;;
12986;SDS011;58897;51.960;5.582;2024-01-11T09:38:03;34.13;;;12.73;;
12986;SDS011;58897;51.960;5.582;2024-01-11T09:40:30;29.97;;;13.13;;
12986;SDS011;58897;51.960;5.582;2024-01-11T09:42:57;38.20;;;14.70;;
12986;SDS011;58897;51.960;5.582;2024-01-11T09:45:24;34.57;;;14.00;;
12986;SDS011;58897;51.960;5.582;2024-01-11T09:47:52;26.20;;;12.47;;
12986;SDS011;58897;51.960;5.582;2024-01-11T09:50:19;34.73;;;13.70;;
12986;SDS011;58897;51.960;5.582;2024-01-11T09:52:48;36.20;;;14.00;;
12986;SDS011;58897;51.960;5.582;2024-01-11T09:55:16;26.20;;;12.87;;
12986;SDS011;58897;51.960;5.582;2024-01-11T09:57:44;24.43;;;12.77;;
12986;SDS011;58897;51.960;5.582;2024-01-11T10:00:19;31.60;;;13.43;;
12986;SDS011;58897;51.960;5.582;2024-01-11T10:02:50;36.20;;;13.93;;
12986;SDS011;58897;51.960;5.582;2024-01-11T10:05:18;29.47;;;13.53;;
12986;SDS011;58897;51.960;5.582;2024-01-11T10:07:45;25.40;;;12.67;;
12986;SDS011;58897;51.960;5.582;2024-01-11T10:10:12;31.30;;;13.70;;
12986;SDS011;58897;51.960;5.582;2024-01-11T10:12:41;25.20;;;11.97;;
12986;SDS011;58897;51.960;5.582;2024-01-11T10:15:08;26.73;;;12.73;;
12986;SDS011;58897;51.960;5.582;2024-01-11T10:17:38;25.60;;;12.40;;
12986;SDS011;58897;51.960;5.582;2024-01-11T10:20:08;31.50;;;14.57;;
12986;SDS011;58897;51.960;5.582;2024-01-11T10:22:37;26.23;;;13.80;;
12986;SDS011;58897;51.960;5.582;2024-01-11T10:25:10;23.57;;;12.37;;
12986;SDS011;58897;51.960;5.582;2024-01-11T10:27:39;25.70;;;13.37;;
12986;SDS011;58897;51.960;5.582;2024-01-11T10:30:11;24.53;;;12.87;;
12986;SDS011;58897;51.960;5.582;2024-01-11T10:32:46;34.33;;;16.43;;
12986;SDS011;58897;51.960;5.582;2024-01-11T10:35:13;30.10;;;13.13;;
12986;SDS011;58897;51.960;5.582;2024-01-11T10:37:40;23.97;;;11.30;;
12986;SDS011;58897;51.960;5.582;2024-01-11T10:40:09;21.47;;;10.17;;
12986;SDS011;58897;51.960;5.582;2024-01-11T10:42:40;22.80;;;10.33;;
12986;SDS011;58897;51.960;5.582;2024-01-11T10:45:10;20.67;;;11.47;;
12986;SDS011;58897;51.960;5.582;2024-01-11T10:47:57;25.90;;;12.10;;
12986;SDS011;58897;51.960;5.582;2024-01-11T10:50:30;19.67;;;10.10;;
12986;SDS011;58897;51.960;5.582;2024-01-11T10:55:56;22.07;;;8.97;;
12986;SDS011;58897;51.960;5.582;2024-01-11T10:58:26;20.47;;;8.33;;
12986;SDS011;58897;51.960;5.582;2024-01-11T11:00:54;20.40;;;9.20;;
12986;SDS011;58897;51.960;5.582;2024-01-11T11:03:22;16.30;;;8.13;;
12986;SDS011;58897;51.960;5.582;2024-01-11T11:05:50;20.57;;;8.63;;
12986;SDS011;58897;51.960;5.582;2024-01-11T11:08:20;16.93;;;7.57;;
12986;SDS011;58897;51.960;5.582;2024-01-11T11:10:47;18.73;;;7.80;;
12986;SDS011;58897;51.960;5.582;2024-01-11T11:13:15;21.27;;;7.40;;
12986;SDS011;58897;51.960;5.582;2024-01-11T11:15:45;23.00;;;7.37;;
12986;SDS011;58897;51.960;5.582;2024-01-11T11:18:13;14.07;;;5.13;;
12986;SDS011;58897;51.960;5.582;2024-01-11T11:20:40;20.30;;;6.90;;
12986;SDS011;58897;51.960;5.582;2024-01-11T11:23:11;16.67;;;6.17;;
12986;SDS011;58897;51.960;5.582;2024-01-11T11:25:40;15.80;;;6.10;;
12986;SDS011;58897;51.960;5.582;2024-01-11T11:28:07;20.07;;;6.57;;
12986;SDS011;58897;51.960;5.582;2024-01-11T11:30:37;22.63;;;7.43;;
12986;SDS011;58897;51.960;5.582;2024-01-11T11:33:08;22.60;;;6.70;;
12986;SDS011;58897;51.960;5.582;2024-01-11T11:35:46;18.73;;;5.93;;
12986;SDS011;58897;51.960;5.582;2024-01-11T11:38:23;26.53;;;7.70;;
12986;SDS011;58897;51.960;5.582;2024-01-11T11:40:55;19.60;;;7.13;;
12986;SDS011;58897;51.960;5.582;2024-01-11T11:43:23;21.63;;;7.00;;
12986;SDS011;58897;51.960;5.582;2024-01-11T11:45:51;20.30;;;6.90;;
12986;SDS011;58897;51.960;5.582;2024-01-11T11:51:12;19.33;;;6.13;;
12986;SDS011;58897;51.960;5.582;2024-01-11T11:53:45;26.77;;;7.67;;
12986;SDS011;58897;51.960;5.582;2024-01-11T11:56:14;21.73;;;6.73;;
12986;SDS011;58897;51.960;5.582;2024-01-11T11:58:44;19.37;;;6.50;;
12986;SDS011;58897;51.960;5.582;2024-01-11T12:01:12;28.80;;;8.47;;
12986;SDS011;58897;51.960;5.582;2024-01-11T12:03:40;28.00;;;8.17;;
12986;SDS011;58897;51.960;5.582;2024-01-11T12:06:08;24.40;;;7.37;;
12986;SDS011;58897;51.960;5.582;2024-01-11T12:08:37;26.73;;;7.80;;
12986;SDS011;58897;51.960;5.582;2024-01-11T12:11:08;33.17;;;9.23;;
12986;SDS011;58897;51.960;5.582;2024-01-11T12:13:35;26.27;;;8.03;;
12986;SDS011;58897;51.960;5.582;2024-01-11T12:16:02;21.77;;;7.13;;
12986;SDS011;58897;51.960;5.582;2024-01-11T12:18:29;30.87;;;8.77;;
12986;SDS011;58897;51.960;5.582;2024-01-11T12:20:56;31.60;;;9.83;;
12986;SDS011;58897;51.960;5.582;2024-01-11T12:23:24;22.17;;;7.93;;
12986;SDS011;58897;51.960;5.582;2024-01-11T12:25:51;33.57;;;8.67;;
12986;SDS011;58897;51.960;5.582;2024-01-11T12:28:18;26.37;;;7.83;;
12986;SDS011;58897;51.960;5.582;2024-01-11T12:30:45;29.53;;;7.70;;
12986;SDS011;58897;51.960;5.582;2024-01-11T12:33:14;26.03;;;8.27;;
12986;SDS011;58897;51.960;5.582;2024-01-11T12:35:42;30.43;;;7.93;;
12986;SDS011;58897;51.960;5.582;2024-01-11T12:38:10;22.80;;;6.57;;
12986;SDS011;58897;51.960;5.582;2024-01-11T12:40:37;23.60;;;7.93;;
12986;SDS011;58897;51.960;5.582;2024-01-11T12:43:04;24.50;;;7.40;;
12986;SDS011;58897;51.960;5.582;2024-01-11T12:45:32;20.73;;;7.47;;
12986;SDS011;58897;51.960;5.582;2024-01-11T12:47:59;23.03;;;7.30;;
12986;SDS011;58897;51.960;5.582;2024-01-11T12:50:27;29.10;;;8.60;;
12986;SDS011;58897;51.960;5.582;2024-01-11T12:53:10;34.23;;;9.47;;
12986;SDS011;58897;51.960;5.582;2024-01-11T12:55:47;18.77;;;6.20;;
12986;SDS011;58897;51.960;5.582;2024-01-11T12:58:23;24.60;;;8.10;;
12986;SDS011;58897;51.960;5.582;2024-01-11T13:00:53;34.10;;;9.17;;
12986;SDS011;58897;51.960;5.582;2024-01-11T13:03:20;30.47;;;8.43;;
12986;SDS011;58897;51.960;5.582;2024-01-11T13:05:54;21.90;;;7.07;;
12986;SDS011;58897;51.960;5.582;2024-01-11T13:08:25;19.87;;;6.80;;
12986;SDS011;58897;51.960;5.582;2024-01-11T13:10:53;22.27;;;7.07;;
12986;SDS011;58897;51.960;5.582;2024-01-11T13:13:30;29.47;;;8.43;;
12986;SDS011;58897;51.960;5.582;2024-01-11T13:17:06;26.30;;;8.53;;
12986;SDS011;58897;51.960;5.582;2024-01-11T13:19:34;33.03;;;8.07;;
12986;SDS011;58897;51.960;5.582;2024-01-11T13:22:01;21.53;;;6.80;;
12986;SDS011;58897;51.960;5.582;2024-01-11T13:24:28;19.83;;;6.57;;
12986;SDS011;58897;51.960;5.582;2024-01-11T13:26:55;30.47;;;8.80;;
12986;SDS011;58897;51.960;5.582;2024-01-11T13:29:23;18.87;;;6.73;;
12986;SDS011;58897;51.960;5.582;2024-01-11T13:31:52;22.87;;;7.67;;
12986;SDS011;58897;51.960;5.582;2024-01-11T13:34:19;27.17;;;8.70;;
12986;SDS011;58897;51.960;5.582;2024-01-11T13:36:46;20.00;;;7.07;;
12986;SDS011;58897;51.960;5.582;2024-01-11T13:39:12;21.90;;;7.83;;
12986;SDS011;58897;51.960;5.582;2024-01-11T13:41:39;34.83;;;9.30;;
12986;SDS011;58897;51.960;5.582;2024-01-11T13:44:07;26.57;;;8.00;;
12986;SDS011;58897;51.960;5.582;2024-01-11T13:46:42;25.93;;;7.37;;
12986;SDS011;58897;51.960;5.582;2024-01-11T13:49:10;13.30;;;5.50;;
12986;SDS011;58897;51.960;5.582;2024-01-11T13:51:41;26.40;;;7.77;;
12986;SDS011;58897;51.960;5.582;2024-01-11T13:54:22;23.30;;;7.47;;
12986;SDS011;58897;51.960;5.582;2024-01-11T13:56:54;24.50;;;8.00;;
12986;SDS011;58897;51.960;5.582;2024-01-11T13:59:21;28.23;;;8.60;;
12986;SDS011;58897;51.960;5.582;2024-01-11T14:01:51;20.17;;;7.77;;
12986;SDS011;58897;51.960;5.582;2024-01-11T14:04:18;19.50;;;6.63;;
12986;SDS011;58897;51.960;5.582;2024-01-11T14:06:47;40.37;;;9.90;;
12986;SDS011;58897;51.960;5.582;2024-01-11T14:09:22;38.57;;;11.37;;
12986;SDS011;58897;51.960;5.582;2024-01-11T14:11:57;27.73;;;9.27;;
12986;SDS011;58897;51.960;5.582;2024-01-11T14:14:24;22.10;;;8.70;;
12986;SDS011;58897;51.960;5.582;2024-01-11T14:16:51;23.33;;;8.37;;
12986;SDS011;58897;51.960;5.582;2024-01-11T14:19:21;34.60;;;10.70;;
12986;SDS011;58897;51.960;5.582;2024-01-11T14:21:51;30.83;;;10.33;;
12986;SDS011;58897;51.960;5.582;2024-01-11T14:24:18;27.87;;;9.30;;
12986;SDS011;58897;51.960;5.582;2024-01-11T14:27:02;28.90;;;9.53;;
12986;SDS011;58897;51.960;5.582;2024-01-11T14:29:28;19.47;;;8.37;;
12986;SDS011;58897;51.960;5.582;2024-01-11T14:32:01;29.23;;;10.47;;
12986;SDS011;58897;51.960;5.582;2024-01-11T14:34:32;28.03;;;10.47;;
12986;SDS011;58897;51.960;5.582;2024-01-11T14:37:01;33.93;;;11.67;;
12986;SDS011;58897;51.960;5.582;2024-01-11T14:39:28;25.13;;;9.57;;
12986;SDS011;58897;51.960;5.582;2024-01-11T14:42:00;25.97;;;10.00;;
12986;SDS011;58897;51.960;5.582;2024-01-11T14:44:38;25.67;;;8.80;;